Time;durP1;ratioP1;P1;durP2;ratioP2;P2;SDS_P1;SDS_P2;PMS_P1;PMS_P2;Temp;Humidity;BMP_temperature;BMP_pressure;BME280_temperature;BME280_humidity;BME280_pressure;Samples;Min_cycle;Max_cycle;Signal;HPM_P1;HPM_P2
2022/05/09 00:01:34;;;;;;;;;15.67;15.67;;;;;;;;5079003;27;45345;-77
2022/05/09 00:03:59;;;;;;;;;16.33;13.00;;;;;;;;5079627;27;45262;-78
2022/05/09 00:06:24;;;;;;;;;18.00;12.67;;;;;;;;5079606;27;45296;-78
2022/05/09 00:08:50;;;;;;;;;16.00;13.33;;;;;;;;5079140;27;45290;-76
2022/05/09 00:11:15;;;;;;;;;18.67;14.67;;;;;;;;5079203;27;45664;-78
2022/05/09 00:13:40;;;;;;;;;16.00;10.67;;;;;;;;5079537;27;45413;-76
2022/05/09 00:16:06;;;;;;;;;16.67;16.00;;;;;;;;5079299;27;45442;-78
2022/05/09 00:18:31;;;;;;;;;15.00;15.00;;;;;;;;5079252;27;46683;-78
2022/05/09 00:20:57;;;;;;;;;19.00;14.67;;;;;;;;5079048;27;45454;-76
2022/05/09 00:23:22;;;;;;;;;16.00;14.00;;;;;;;;5079173;27;45354;-77
2022/05/09 00:25:47;;;;;;;;;17.67;15.00;;;;;;;;5079309;27;45346;-76
2022/05/09 00:28:13;;;;;;;;;17.67;16.00;;;;;;;;5078855;27;46668;-78
2022/05/09 00:30:38;;;;;;;;;18.33;16.33;;;;;;;;5079042;27;45446;-77
2022/05/09 00:33:04;;;;;;;;;17.33;15.33;;;;;;;;5078646;27;45751;-77
2022/05/09 00:35:29;;;;;;;;;16.33;12.67;;;;;;;;5079230;27;45506;-77
2022/05/09 00:37:54;;;;;;;;;18.00;15.33;;;;;;;;5078943;27;45524;-77
2022/05/09 00:40:19;;;;;;;;;20.67;16.00;;;;;;;;5078816;27;45685;-78
2022/05/09 00:42:48;;;;;;;;;18.33;12.67;;;;;;;;5078936;28;45259;-76
2022/05/09 00:45:14;;;;;;;;;18.00;16.00;;;;;;;;5078930;27;45493;-78
2022/05/09 00:47:40;;;;;;;;;21.67;17.67;;;;;;;;5078478;27;45916;-77
2022/05/09 00:50:06;;;;;;;;;14.00;14.00;;;;;;;;5078825;28;45308;-77
2022/05/09 00:52:32;;;;;;;;;17.67;14.67;;;;;;;;5078585;27;45371;-76
2022/05/09 00:55:09;;;;;;;;;15.67;13.33;;;;;;;;5078789;27;45363;-75
2022/05/09 00:57:43;;;;;;;;;19.00;16.67;;;;;;;;5078411;27;46723;-76
2022/05/09 01:00:10;;;;;;;;;19.67;18.33;;;;;;;;5078417;28;45362;-77
2022/05/09 01:02:36;;;;;;;;;22.33;18.00;;;;;;;;5078279;27;45396;-77
2022/05/09 01:05:02;;;;;;;;;20.33;17.00;;;;;;;;5078897;28;45213;-77
2022/05/09 01:07:30;;;;;;;;;18.67;16.67;;;;;;;;5077944;27;46044;-78
2022/05/09 01:09:55;;;;;;;;;18.67;18.00;;;;;;;;5078363;27;45444;-76
2022/05/09 01:12:22;;;;;;;;;17.67;15.67;;;;;;;;5078444;27;45415;-77
2022/05/09 01:14:48;;;;;;;;;17.33;15.33;;;;;;;;5078423;27;45414;-76
2022/05/09 01:17:15;;;;;;;;;19.33;18.00;;;;;;;;5078350;27;45328;-77
2022/05/09 01:19:41;;;;;;;;;18.33;15.33;;;;;;;;5077894;27;45332;-77
2022/05/09 01:22:21;;;;;;;;;23.33;18.00;;;;;;;;5077956;27;45208;-77
2022/05/09 01:24:46;;;;;;;;;18.00;16.00;;;;;;;;5078480;27;45433;-78
2022/05/09 01:27:12;;;;;;;;;27.00;19.67;;;;;;;;5077718;28;45413;-78
2022/05/09 01:29:53;;;;;;;;;16.67;14.67;;;;;;;;5077660;27;45313;-77
2022/05/09 01:32:27;;;;;;;;;20.00;17.67;;;;;;;;5078172;27;45329;-77
2022/05/09 01:34:58;;;;;;;;;19.67;17.00;;;;;;;;5078026;27;45359;-77
2022/05/09 01:37:24;;;;;;;;;19.33;18.00;;;;;;;;5077819;27;45326;-77
2022/05/09 01:39:49;;;;;;;;;22.67;19.33;;;;;;;;5077882;27;45264;-76
2022/05/09 01:42:14;;;;;;;;;21.00;18.00;;;;;;;;5077773;28;45209;-78
2022/05/09 01:44:41;;;;;;;;;27.00;23.67;;;;;;;;5077193;27;45362;-77
2022/05/09 01:50:07;;;;;;;;;22.00;19.33;;;;;;;;5034970;28;45430;-76
2022/05/09 01:52:32;;;;;;;;;19.67;17.67;;;;;;;;5035250;28;45357;-76
2022/05/09 01:54:57;;;;;;;;;22.67;20.67;;;;;;;;5034958;28;45412;-76
2022/05/09 01:57:22;;;;;;;;;20.33;19.67;;;;;;;;5034849;28;45538;-77
2022/05/09 01:59:47;;;;;;;;;25.00;18.33;;;;;;;;5035013;28;45424;-76
2022/05/09 02:02:14;;;;;;;;;24.33;20.67;;;;;;;;5035094;28;45528;-77
2022/05/09 02:04:40;;;;;;;;;16.00;15.33;;;;;;;;5035413;28;45340;-77
2022/05/09 02:07:09;;;;;;;;;23.67;19.33;;;;;;;;5034917;28;45469;-77
2022/05/09 02:09:34;;;;;;;;;25.00;22.67;;;;;;;;5035147;28;45509;-76
2022/05/09 02:11:59;;;;;;;;;21.00;19.00;;;;;;;;5035001;28;45361;-76
2022/05/09 02:14:25;;;;;;;;;22.67;19.00;;;;;;;;5034986;28;45745;-78
2022/05/09 02:16:50;;;;;;;;;17.33;17.33;;;;;;;;5034783;28;46496;-78
2022/05/09 02:19:15;;;;;;;;;20.00;19.00;;;;;;;;5034901;28;45366;-78
2022/05/09 02:21:40;;;;;;;;;17.00;16.67;;;;;;;;5035051;28;45465;-78
2022/05/09 02:24:06;;;;;;;;;20.00;18.00;;;;;;;;5056353;28;45283;-78
2022/05/09 02:26:31;;;;;;;;;21.67;16.33;;;;;;;;5077172;27;45394;-79
2022/05/09 02:28:57;;;;;;;;;24.00;20.00;;;;;;;;5077080;28;45297;-78
2022/05/09 02:31:23;;;;;;;;;24.33;24.00;;;;;;;;5077502;27;45407;-78
2022/05/09 02:33:49;;;;;;;;;21.33;20.67;;;;;;;;5077413;27;45411;-78
2022/05/09 02:36:14;;;;;;;;;24.67;19.67;;;;;;;;5077110;27;45516;-79
2022/05/09 02:38:39;;;;;;;;;19.67;18.67;;;;;;;;5077071;28;45370;-79
2022/05/09 02:41:05;;;;;;;;;20.67;18.67;;;;;;;;5077363;28;45604;-78
2022/05/09 02:43:31;;;;;;;;;21.00;19.33;;;;;;;;5077254;27;45384;-79
2022/05/09 02:46:03;;;;;;;;;24.33;21.33;;;;;;;;5077092;27;46166;-77
2022/05/09 02:48:29;;;;;;;;;22.67;20.67;;;;;;;;5076957;27;45405;-76
2022/05/09 02:50:54;;;;;;;;;20.33;19.00;;;;;;;;5077139;27;45319;-76
2022/05/09 02:53:19;;;;;;;;;23.00;21.00;;;;;;;;5077469;28;45315;-77
2022/05/09 02:55:44;;;;;;;;;22.00;19.00;;;;;;;;5076632;28;46374;-76
2022/05/09 02:58:10;;;;;;;;;23.33;20.00;;;;;;;;5080304;28;45239;-76
2022/05/09 03:00:36;;;;;;;;;22.00;20.00;;;;;;;;5080513;27;45367;-75
2022/05/09 03:05:46;;;;;;;;;23.33;22.00;;;;;;;;5080404;28;46245;-75
2022/05/09 03:08:12;;;;;;;;;20.67;19.67;;;;;;;;5080260;27;45359;-75
2022/05/09 03:10:38;;;;;;;;;20.00;19.67;;;;;;;;5080262;27;45798;-76
2022/05/09 03:13:04;;;;;;;;;19.00;18.00;;;;;;;;5080365;27;45371;-76
2022/05/09 03:15:33;;;;;;;;;19.67;19.67;;;;;;;;5079926;27;45666;-77
2022/05/09 03:17:58;;;;;;;;;24.67;22.00;;;;;;;;5080166;28;45352;-77
2022/05/09 03:20:24;;;;;;;;;23.00;18.33;;;;;;;;5078921;28;45458;-77
2022/05/09 03:22:49;;;;;;;;;25.67;22.67;;;;;;;;5079975;27;45476;-77
2022/05/09 03:25:15;;;;;;;;;51.67;42.33;;;;;;;;5080009;28;45374;-78
2022/05/09 03:27:40;;;;;;;;;64.00;51.00;;;;;;;;5079875;27;45335;-78
2022/05/09 03:30:07;;;;;;;;;56.33;44.33;;;;;;;;5079875;28;45507;-78
2022/05/09 03:32:32;;;;;;;;;73.50;60.75;;;;;;;;5080451;27;45415;-78
2022/05/09 03:34:57;;;;;;;;;51.00;37.33;;;;;;;;5079529;28;45707;-76
2022/05/09 03:37:23;;;;;;;;;51.67;44.00;;;;;;;;5080153;28;45302;-77
2022/05/09 03:39:48;;;;;;;;;74.50;53.75;;;;;;;;5079755;27;45304;-77
2022/05/09 03:42:13;;;;;;;;;64.25;51.25;;;;;;;;5079686;28;45321;-77
2022/05/09 03:44:38;;;;;;;;;64.75;49.50;;;;;;;;5079622;28;46474;-76
2022/05/09 03:47:03;;;;;;;;;60.50;47.75;;;;;;;;5079522;28;45210;-77
2022/05/09 03:49:29;;;;;;;;;54.00;42.67;;;;;;;;5079929;28;45307;-77
2022/05/09 03:51:54;;;;;;;;;40.67;35.00;;;;;;;;5079879;28;45295;-78
2022/05/09 03:54:19;;;;;;;;;54.33;42.00;;;;;;;;5079118;27;45326;-77
2022/05/09 03:56:45;;;;;;;;;59.00;45.33;;;;;;;;5079447;27;45307;-77
2022/05/09 03:59:11;;;;;;;;;52.33;42.33;;;;;;;;5079328;27;45370;-77
2022/05/09 04:01:37;;;;;;;;;54.67;43.00;;;;;;;;5079467;27;45550;-78
2022/05/09 04:04:02;;;;;;;;;50.00;41.67;;;;;;;;5079369;27;46991;-78
2022/05/09 04:06:28;;;;;;;;;45.33;36.00;;;;;;;;5079117;27;45318;-77
2022/05/09 04:08:53;;;;;;;;;40.00;34.33;;;;;;;;5078970;28;45307;-77
2022/05/09 04:11:18;;;;;;;;;39.33;34.33;;;;;;;;5079563;28;45329;-78
2022/05/09 04:13:43;;;;;;;;;35.33;31.67;;;;;;;;5079017;28;45768;-77
2022/05/09 04:18:56;;;;;;;;;28.33;26.67;;;;;;;;5079373;27;45407;-77
2022/05/09 04:21:22;;;;;;;;;34.33;29.67;;;;;;;;5079263;27;45377;-78
2022/05/09 04:23:48;;;;;;;;;32.33;28.67;;;;;;;;5078687;27;46087;-77
2022/05/09 04:26:13;;;;;;;;;30.67;26.67;;;;;;;;5079050;27;45517;-78
2022/05/09 04:28:39;;;;;;;;;37.33;31.00;;;;;;;;5078993;27;45299;-78
2022/05/09 04:31:04;;;;;;;;;34.67;28.33;;;;;;;;5078990;28;45403;-77
2022/05/09 04:33:29;;;;;;;;;31.33;29.33;;;;;;;;5078842;28;45517;-78
2022/05/09 04:35:55;;;;;;;;;29.67;27.67;;;;;;;;5079058;28;45450;-78
2022/05/09 04:38:22;;;;;;;;;27.33;24.00;;;;;;;;5079080;28;45345;-78
2022/05/09 04:40:51;;;;;;;;;35.00;30.33;;;;;;;;5079197;27;45300;-78
2022/05/09 04:43:17;;;;;;;;;38.00;29.00;;;;;;;;5078366;27;46118;-77
2022/05/09 04:45:42;;;;;;;;;38.00;29.00;;;;;;;;5078632;28;45266;-78
2022/05/09 04:48:07;;;;;;;;;31.33;27.00;;;;;;;;5078863;28;45324;-78
2022/05/09 04:50:34;;;;;;;;;32.67;30.33;;;;;;;;5078965;28;45272;-78
2022/05/09 04:52:59;;;;;;;;;32.00;26.00;;;;;;;;5078628;27;45513;-78
2022/05/09 04:55:25;;;;;;;;;33.33;31.00;;;;;;;;5078055;28;45343;-77
2022/05/09 04:57:51;;;;;;;;;31.33;28.67;;;;;;;;5078538;28;45457;-77
2022/05/09 05:00:18;;;;;;;;;30.67;27.33;;;;;;;;5078374;27;45536;-78
2022/05/09 05:02:43;;;;;;;;;31.67;28.00;;;;;;;;5078117;27;46111;-77
2022/05/09 05:05:08;;;;;;;;;31.67;29.67;;;;;;;;5078300;27;45378;-78
2022/05/09 05:07:34;;;;;;;;;30.00;27.67;;;;;;;;5078586;27;45337;-77
2022/05/09 05:10:00;;;;;;;;;34.33;29.00;;;;;;;;5078494;27;45374;-76
2022/05/09 05:12:25;;;;;;;;;30.00;26.33;;;;;;;;5078212;27;45611;-76
2022/05/09 05:14:50;;;;;;;;;29.33;25.00;;;;;;;;5078195;27;45417;-76
2022/05/09 05:17:16;;;;;;;;;27.00;25.00;;;;;;;;5078507;28;45364;-76
2022/05/09 05:19:43;;;;;;;;;31.67;26.00;;;;;;;;5077419;27;45317;-76
2022/05/09 05:22:09;;;;;;;;;36.00;31.00;;;;;;;;5077932;27;45512;-76
2022/05/09 05:24:35;;;;;;;;;31.33;28.67;;;;;;;;5062983;27;45324;-76
2022/05/09 05:27:01;;;;;;;;;30.67;28.33;;;;;;;;5066651;28;45407;-77
2022/05/09 05:29:26;;;;;;;;;31.67;27.33;;;;;;;;5058142;28;45297;-77
2022/05/09 05:31:51;;;;;;;;;38.00;33.67;;;;;;;;5058009;28;45538;-76
2022/05/09 05:34:16;;;;;;;;;28.33;25.67;;;;;;;;5071809;28;45261;-76
2022/05/09 05:36:42;;;;;;;;;28.00;27.00;;;;;;;;5078151;28;45422;-76
2022/05/09 05:39:09;;;;;;;;;43.33;35.33;;;;;;;;5076389;28;45240;-76
2022/05/09 05:41:34;;;;;;;;;37.00;30.00;;;;;;;;5077993;27;46370;-76
2022/05/09 05:44:00;;;;;;;;;31.00;26.67;;;;;;;;5077596;28;45280;-76
2022/05/09 05:46:25;;;;;;;;;29.33;27.00;;;;;;;;5077880;27;45302;-76
2022/05/09 05:48:51;;;;;;;;;27.00;25.67;;;;;;;;5078307;27;45407;-76
2022/05/09 05:51:18;;;;;;;;;38.00;32.33;;;;;;;;5077492;27;47090;-76
2022/05/09 05:53:44;;;;;;;;;28.00;25.67;;;;;;;;5077899;27;45418;-76
2022/05/09 05:56:09;;;;;;;;;31.33;28.33;;;;;;;;5077395;28;45233;-75
2022/05/09 05:58:34;;;;;;;;;29.00;27.67;;;;;;;;5077500;28;45424;-76
2022/05/09 06:00:59;;;;;;;;;25.33;24.00;;;;;;;;5077486;28;46481;-76
2022/05/09 06:03:25;;;;;;;;;38.67;30.67;;;;;;;;5077500;28;45381;-76
2022/05/09 06:05:50;;;;;;;;;32.67;28.67;;;;;;;;5077705;28;45301;-75
2022/05/09 06:08:15;;;;;;;;;27.67;26.00;;;;;;;;5077677;28;45378;-75
2022/05/09 06:10:41;;;;;;;;;33.67;28.33;;;;;;;;5077145;28;46215;-76
2022/05/09 06:13:06;;;;;;;;;32.00;27.00;;;;;;;;5077640;28;45295;-76
2022/05/09 06:15:32;;;;;;;;;55.00;45.50;;;;;;;;5077326;27;45419;-76
2022/05/09 06:18:00;;;;;;;;;47.33;36.00;;;;;;;;5077670;27;45374;-75
2022/05/09 06:20:27;;;;;;;;;35.00;28.00;;;;;;;;5077119;27;45382;-75
2022/05/09 06:22:54;;;;;;;;;25.00;23.00;;;;;;;;5076974;28;45357;-75
2022/05/09 06:25:20;;;;;;;;;25.33;23.00;;;;;;;;5077265;27;45497;-75
2022/05/09 06:27:45;;;;;;;;;26.33;21.33;;;;;;;;5077227;27;45408;-75
2022/05/09 06:30:12;;;;;;;;;23.00;19.00;;;;;;;;5077493;27;46778;-76
2022/05/09 06:32:37;;;;;;;;;23.67;19.33;;;;;;;;5080445;28;45509;-76
2022/05/09 06:35:05;;;;;;;;;29.00;23.67;;;;;;;;5079057;27;45417;-75
2022/05/09 06:37:32;;;;;;;;;20.67;19.33;;;;;;;;5080690;27;45392;-76
2022/05/09 06:39:58;;;;;;;;;31.33;24.00;;;;;;;;5080200;27;46154;-75
2022/05/09 06:42:23;;;;;;;;;26.33;23.00;;;;;;;;5080084;27;45392;-75
2022/05/09 06:44:48;;;;;;;;;22.00;20.33;;;;;;;;5079997;27;45320;-75
2022/05/09 06:47:14;;;;;;;;;24.67;20.33;;;;;;;;5080334;28;45372;-75
2022/05/09 06:49:39;;;;;;;;;35.00;26.00;;;;;;;;5080193;27;46460;-75
2022/05/09 06:52:04;;;;;;;;;22.00;21.00;;;;;;;;5080078;27;45465;-75
2022/05/09 06:54:29;;;;;;;;;23.33;21.67;;;;;;;;5080095;27;46099;-74
2022/05/09 06:56:55;;;;;;;;;25.67;22.33;;;;;;;;5080163;27;45394;-75
2022/05/09 06:59:20;;;;;;;;;21.33;19.67;;;;;;;;5079985;27;46721;-76
2022/05/09 07:01:46;;;;;;;;;29.67;22.00;;;;;;;;5079818;27;45278;-76
2022/05/09 07:04:12;;;;;;;;;24.33;22.67;;;;;;;;5080207;27;45309;-76
2022/05/09 07:06:38;;;;;;;;;22.33;18.67;;;;;;;;5080380;27;45363;-76
2022/05/09 07:09:05;;;;;;;;;26.00;22.67;;;;;;;;5079830;27;46015;-75
2022/05/09 07:11:30;;;;;;;;;22.67;19.00;;;;;;;;5071479;27;45489;-76
2022/05/09 07:13:55;;;;;;;;;24.00;19.00;;;;;;;;5064642;27;45163;-75
2022/05/09 07:16:21;;;;;;;;;34.33;24.00;;;;;;;;5060362;27;45410;-77
2022/05/09 07:18:47;;;;;;;;;21.67;17.67;;;;;;;;5059740;28;45337;-75
2022/05/09 07:21:12;;;;;;;;;26.67;22.00;;;;;;;;5059667;28;45320;-76
2022/05/09 07:23:37;;;;;;;;;20.67;20.67;;;;;;;;5058105;28;45230;-77
2022/05/09 07:26:02;;;;;;;;;27.67;18.33;;;;;;;;5059764;28;45145;-75
2022/05/09 07:28:28;;;;;;;;;25.33;21.67;;;;;;;;5059573;28;46417;-75
2022/05/09 07:30:56;;;;;;;;;25.33;21.00;;;;;;;;5059534;28;45328;-74
2022/05/09 07:33:22;;;;;;;;;27.00;24.33;;;;;;;;5065989;27;45253;-75
2022/05/09 07:35:47;;;;;;;;;24.33;22.33;;;;;;;;5079825;27;45451;-76
2022/05/09 07:38:12;;;;;;;;;28.67;21.33;;;;;;;;5079641;27;46523;-76
2022/05/09 07:40:40;;;;;;;;;22.67;20.67;;;;;;;;5079491;28;45374;-75
2022/05/09 07:43:17;;;;;;;;;26.33;22.67;;;;;;;;5078677;27;45415;-75
2022/05/09 07:45:43;;;;;;;;;28.67;22.33;;;;;;;;5079741;27;45272;-76
2022/05/09 07:48:08;;;;;;;;;23.67;22.67;;;;;;;;5079333;28;46278;-75
2022/05/09 07:50:34;;;;;;;;;22.33;20.33;;;;;;;;5079316;28;45355;-75
2022/05/09 07:53:03;;;;;;;;;22.67;20.33;;;;;;;;5079556;27;45802;-76
2022/05/09 07:55:29;;;;;;;;;31.00;23.67;;;;;;;;5079378;27;45408;-75
2022/05/09 07:57:55;;;;;;;;;30.67;27.00;;;;;;;;5079285;28;45309;-75
2022/05/09 08:00:20;;;;;;;;;24.33;20.67;;;;;;;;5079057;27;45481;-75
2022/05/09 08:02:45;;;;;;;;;34.33;31.33;;;;;;;;5079573;28;45427;-75
2022/05/09 08:05:11;;;;;;;;;41.00;33.33;;;;;;;;5078136;28;45490;-76
2022/05/09 08:07:37;;;;;;;;;31.00;22.67;;;;;;;;5078549;27;46051;-76
2022/05/09 08:10:02;;;;;;;;;27.00;22.67;;;;;;;;5079059;27;45356;-76
2022/05/09 08:12:28;;;;;;;;;26.67;23.33;;;;;;;;5068474;27;45459;-75
2022/05/09 08:14:53;;;;;;;;;28.00;26.33;;;;;;;;5057396;28;45507;-77
2022/05/09 08:17:18;;;;;;;;;25.67;22.33;;;;;;;;5058819;28;46717;-78
2022/05/09 08:19:45;;;;;;;;;35.33;23.67;;;;;;;;5058606;28;45330;-77
2022/05/09 08:22:10;;;;;;;;;26.00;24.67;;;;;;;;5058824;28;45388;-77
2022/05/09 08:24:35;;;;;;;;;20.33;20.33;;;;;;;;5058736;28;45549;-77
2022/05/09 08:27:01;;;;;;;;;23.67;20.67;;;;;;;;5058439;28;45604;-77
2022/05/09 08:29:26;;;;;;;;;21.00;20.67;;;;;;;;5057475;28;45576;-77
2022/05/09 08:31:51;;;;;;;;;29.00;25.67;;;;;;;;5058456;28;45438;-77
2022/05/09 08:34:16;;;;;;;;;22.00;21.00;;;;;;;;5073180;28;45358;-76
2022/05/09 08:36:53;;;;;;;;;29.00;23.67;;;;;;;;5078650;28;47383;-76
2022/05/09 08:39:19;;;;;;;;;25.00;19.33;;;;;;;;5078513;27;45486;-77
2022/05/09 08:41:54;;;;;;;;;26.67;21.33;;;;;;;;5082079;27;45446;-77
2022/05/09 08:44:27;;;;;;;;;26.33;19.33;;;;;;;;5079091;28;45393;-75
2022/05/09 08:47:04;;;;;;;;;46.33;38.67;;;;;;;;5078371;28;46570;-77
2022/05/09 08:49:29;;;;;;;;;24.33;22.33;;;;;;;;5078604;27;45360;-76
2022/05/09 08:51:57;;;;;;;;;25.67;20.00;;;;;;;;5078931;27;45283;-77
2022/05/09 08:54:24;;;;;;;;;20.67;20.00;;;;;;;;5078609;28;45410;-76
2022/05/09 08:56:51;;;;;;;;;29.67;20.33;;;;;;;;5077450;27;45268;-76
2022/05/09 08:59:23;;;;;;;;;21.00;19.33;;;;;;;;5078663;27;45390;-77
2022/05/09 09:01:53;;;;;;;;;28.33;22.67;;;;;;;;5076957;28;45341;-76
2022/05/09 09:04:23;;;;;;;;;24.67;17.67;;;;;;;;5078402;27;45401;-77
2022/05/09 09:07:03;;;;;;;;;25.67;19.33;;;;;;;;5078089;27;46300;-76
2022/05/09 09:09:32;;;;;;;;;21.67;16.67;;;;;;;;5078313;27;45378;-76
2022/05/09 09:12:04;;;;;;;;;18.67;14.33;;;;;;;;5078265;28;45242;-75
2022/05/09 09:14:49;;;;;;;;;14.33;12.67;;;;;;;;5078633;27;45438;-76
2022/05/09 09:17:33;;;;;;;;;12.67;12.33;;;;;;;;5078170;28;46151;-77
2022/05/09 09:20:13;;;;;;;;;15.67;14.00;;;;;;;;5078330;27;45360;-76
2022/05/09 09:22:48;;;;;;;;;12.00;10.00;;;;;;;;5078378;28;45331;-76
2022/05/09 09:25:31;;;;;;;;;15.67;11.33;;;;;;;;5078501;27;45210;-75
2022/05/09 09:28:06;;;;;;;;;12.33;10.00;;;;;;;;5078059;28;45438;-76
2022/05/09 09:30:32;;;;;;;;;11.33;10.00;;;;;;;;5077925;27;45221;-75
2022/05/09 09:32:59;;;;;;;;;13.00;11.67;;;;;;;;5077918;27;45504;-75
2022/05/09 09:35:33;;;;;;;;;12.33;10.00;;;;;;;;5087058;27;45470;-76
2022/05/09 09:38:05;;;;;;;;;11.33;9.00;;;;;;;;5085312;27;45458;-75
2022/05/09 09:40:31;;;;;;;;;6.67;6.67;;;;;;;;5098442;27;45303;-75
2022/05/09 09:42:56;;;;;;;;;14.00;10.00;;;;;;;;5089358;27;45486;-75
2022/05/09 09:45:29;;;;;;;;;14.33;9.00;;;;;;;;5098758;27;45288;-77
2022/05/09 09:48:08;;;;;;;;;12.67;9.67;;;;;;;;5082045;27;46874;-74
2022/05/09 09:50:34;;;;;;;;;10.00;10.00;;;;;;;;5076634;27;46031;-77
2022/05/09 09:53:00;;;;;;;;;10.67;9.00;;;;;;;;5077324;27;45444;-77
2022/05/09 09:55:28;;;;;;;;;12.33;8.33;;;;;;;;5077219;27;46814;-77
2022/05/09 09:57:55;;;;;;;;;13.33;11.00;;;;;;;;5077134;28;45324;-78
2022/05/09 10:00:25;;;;;;;;;16.00;11.33;;;;;;;;5077626;27;45601;-77
2022/05/09 10:02:51;;;;;;;;;13.67;13.00;;;;;;;;5077823;27;45333;-77
2022/05/09 10:05:18;;;;;;;;;10.33;9.33;;;;;;;;5076959;27;45524;-76
2022/05/09 10:07:44;;;;;;;;;11.00;8.00;;;;;;;;5076303;28;46531;-77
2022/05/09 10:10:23;;;;;;;;;10.33;7.67;;;;;;;;5082098;27;45276;-76
2022/05/09 10:12:52;;;;;;;;;8.33;8.00;;;;;;;;5088539;27;45530;-76
2022/05/09 10:15:34;;;;;;;;;7.00;6.67;;;;;;;;5077843;27;45462;-76
2022/05/09 10:18:14;;;;;;;;;9.00;7.00;;;;;;;;5076527;27;46104;-78
2022/05/09 10:20:40;;;;;;;;;10.33;9.00;;;;;;;;5069160;27;45481;-75
2022/05/09 10:26:04;;;;;;;;;11.67;8.00;;;;;;;;5076863;28;45150;-76
2022/05/09 10:28:31;;;;;;;;;12.33;6.67;;;;;;;;5076341;27;45679;-77
2022/05/09 10:31:02;;;;;;;;;9.33;8.00;;;;;;;;5075896;28;45445;-79
2022/05/09 10:33:38;;;;;;;;;9.00;8.00;;;;;;;;5076804;27;45219;-79
2022/05/09 10:36:16;;;;;;;;;11.00;7.00;;;;;;;;5078155;27;45359;-79
2022/05/09 10:38:45;;;;;;;;;11.25;8.25;;;;;;;;5056658;28;45557;-81
2022/05/09 10:41:16;;;;;;;;;12.25;8.00;;;;;;;;5057057;28;45345;-79
2022/05/09 10:43:50;;;;;;;;;9.00;7.75;;;;;;;;5073063;28;45455;-81
2022/05/09 10:46:17;;;;;;;;;9.75;8.00;;;;;;;;5079066;27;45340;-78
2022/05/09 10:48:43;;;;;;;;;10.25;9.25;;;;;;;;5072542;27;47100;-76
2022/05/09 10:51:08;;;;;;;;;7.50;6.25;;;;;;;;5074163;27;45513;-80
2022/05/09 10:53:33;;;;;;;;;9.00;7.00;;;;;;;;5077036;27;45474;-83
2022/05/09 10:56:03;;;;;;;;;8.00;8.00;;;;;;;;5076622;27;45307;-76
2022/05/09 10:58:35;;;;;;;;;9.67;9.67;;;;;;;;5076334;28;45563;-81
2022/05/09 11:01:06;;;;;;;;;8.00;8.00;;;;;;;;5076176;27;45252;-76
2022/05/09 11:03:36;;;;;;;;;9.33;7.33;;;;;;;;5076060;27;45358;-78
2022/05/09 11:06:02;;;;;;;;;10.00;9.00;;;;;;;;5076490;27;45370;-75
2022/05/09 11:08:39;;;;;;;;;13.00;12.67;;;;;;;;5075959;28;45609;-76
2022/05/09 11:11:10;;;;;;;;;14.33;10.67;;;;;;;;5076696;27;45433;-74
2022/05/09 11:13:48;;;;;;;;;11.67;11.67;;;;;;;;5076662;27;45464;-77
2022/05/09 11:16:29;;;;;;;;;16.00;12.67;;;;;;;;5076079;28;45472;-71
2022/05/09 11:19:14;;;;;;;;;14.67;12.00;;;;;;;;5077268;28;47202;-73
2022/05/09 11:21:52;;;;;;;;;16.33;14.33;;;;;;;;5078715;27;45533;-81
2022/05/09 11:24:20;;;;;;;;;16.00;14.67;;;;;;;;5079571;27;45197;-75
2022/05/09 11:26:48;;;;;;;;;14.33;12.67;;;;;;;;5059948;28;45293;-78
2022/05/09 11:29:16;;;;;;;;;11.00;11.00;;;;;;;;5076312;27;46992;-78
2022/05/09 11:31:47;;;;;;;;;12.33;11.00;;;;;;;;5086750;27;45319;-77
2022/05/09 11:34:15;;;;;;;;;13.33;13.33;;;;;;;;5087188;27;45424;-74
2022/05/09 11:37:00;;;;;;;;;12.67;11.67;;;;;;;;5078777;27;45431;-80
2022/05/09 11:39:39;;;;;;;;;16.67;15.00;;;;;;;;5079030;27;45564;-80
2022/05/09 11:45:09;;;;;;;;;13.67;12.33;;;;;;;;5078758;28;45458;-76
2022/05/09 11:47:45;;;;;;;;;13.33;13.33;;;;;;;;5074886;27;45297;-72
2022/05/09 11:50:29;;;;;;;;;12.00;11.00;;;;;;;;5083553;27;45491;-77
2022/05/09 11:52:59;;;;;;;;;13.00;11.67;;;;;;;;5085920;27;45449;-76
2022/05/09 11:55:25;;;;;;;;;8.67;7.33;;;;;;;;5079079;27;45353;-75
2022/05/09 11:57:53;;;;;;;;;9.67;9.67;;;;;;;;5079351;27;45338;-76
2022/05/09 12:00:30;;;;;;;;;11.00;7.33;;;;;;;;5078874;27;45387;-77
2022/05/09 12:02:57;;;;;;;;;35.67;32.33;;;;;;;;5078754;27;45417;-76
2022/05/09 12:05:25;;;;;;;;;9.67;8.67;;;;;;;;5079446;27;45395;-77
2022/05/09 12:08:10;;;;;;;;;14.00;11.67;;;;;;;;5079691;28;45310;-77
2022/05/09 12:10:38;;;;;;;;;12.00;9.00;;;;;;;;5016557;28;46092;-77
2022/05/09 12:13:07;;;;;;;;;12.67;8.33;;;;;;;;5016630;28;45391;-76
2022/05/09 12:15:33;;;;;;;;;10.00;9.00;;;;;;;;5015994;28;45437;-83
2022/05/09 12:17:58;;;;;;;;;12.67;11.67;;;;;;;;5014967;28;45727;-77
2022/05/09 12:20:27;;;;;;;;;13.67;10.33;;;;;;;;5016511;28;47020;-76
2022/05/09 12:22:56;;;;;;;;;10.33;9.00;;;;;;;;5016476;28;45474;-75
2022/05/09 12:25:39;;;;;;;;;8.67;7.33;;;;;;;;5015972;28;45593;-76
2022/05/09 12:28:04;;;;;;;;;10.00;10.00;;;;;;;;5015966;28;45387;-76
2022/05/09 12:30:44;;;;;;;;;13.67;11.00;;;;;;;;5015609;28;45467;-75
2022/05/09 12:33:29;;;;;;;;;12.00;10.00;;;;;;;;5015732;28;45417;-75
2022/05/09 12:35:56;;;;;;;;;15.33;10.33;;;;;;;;4999673;28;45472;-76
2022/05/09 12:38:26;;;;;;;;;13.67;13.33;;;;;;;;5016656;28;45334;-74
2022/05/09 12:40:59;;;;;;;;;10.00;10.00;;;;;;;;5016073;28;45409;-76
2022/05/09 12:43:25;;;;;;;;;14.67;13.33;;;;;;;;5015609;28;45456;-77
2022/05/09 12:45:50;;;;;;;;;16.00;13.00;;;;;;;;5016274;28;45359;-77
2022/05/09 12:48:15;;;;;;;;;17.00;14.00;;;;;;;;5046885;28;45370;-76
2022/05/09 12:50:43;;;;;;;;;14.33;13.33;;;;;;;;5058242;28;46454;-75
2022/05/09 12:53:12;;;;;;;;;13.00;13.00;;;;;;;;5058316;28;45308;-76
2022/05/09 12:55:52;;;;;;;;;20.33;17.33;;;;;;;;5063718;28;45439;-77
2022/05/09 12:58:21;;;;;;;;;13.33;11.00;;;;;;;;5080044;27;45303;-75
2022/05/09 13:00:48;;;;;;;;;10.67;10.67;;;;;;;;5076463;27;45736;-76
2022/05/09 13:03:13;;;;;;;;;12.67;12.00;;;;;;;;5077239;27;45959;-74
2022/05/09 13:05:40;;;;;;;;;8.67;8.00;;;;;;;;5080320;27;45433;-76
2022/05/09 13:08:07;;;;;;;;;7.67;7.67;;;;;;;;5076909;27;45531;-76
2022/05/09 13:10:41;;;;;;;;;8.33;7.00;;;;;;;;5089318;27;46200;-77
2022/05/09 13:13:09;;;;;;;;;9.00;9.00;;;;;;;;5056898;28;45384;-80
2022/05/09 13:15:34;;;;;;;;;5.67;5.67;;;;;;;;5073272;27;45616;-77
2022/05/09 13:18:01;;;;;;;;;12.00;8.33;;;;;;;;5076587;27;45480;-74
2022/05/09 13:20:28;;;;;;;;;6.00;6.00;;;;;;;;5074091;27;46621;-77
2022/05/09 13:22:58;;;;;;;;;8.33;7.00;;;;;;;;5066003;28;45529;-75
2022/05/09 13:25:29;;;;;;;;;9.00;8.00;;;;;;;;5069192;28;45300;-75
2022/05/09 13:27:58;;;;;;;;;13.00;11.33;;;;;;;;5075720;27;45553;-75
2022/05/09 13:30:24;;;;;;;;;8.67;8.33;;;;;;;;5077831;27;45401;-75
2022/05/09 13:32:54;;;;;;;;;8.00;5.00;;;;;;;;5075749;27;45781;-74
2022/05/09 13:35:19;;;;;;;;;10.67;7.67;;;;;;;;5077966;27;45164;-75
2022/05/09 13:37:44;;;;;;;;;8.33;8.33;;;;;;;;5078513;27;45268;-75
2022/05/09 13:40:11;;;;;;;;;7.67;7.67;;;;;;;;5076970;27;46465;-75
2022/05/09 13:42:41;;;;;;;;;7.00;7.00;;;;;;;;5076499;27;45406;-74
2022/05/09 13:45:26;;;;;;;;;15.33;14.00;;;;;;;;5074167;28;45906;-74
2022/05/09 13:47:56;;;;;;;;;10.33;9.00;;;;;;;;5077858;27;45329;-74
2022/05/09 13:50:22;;;;;;;;;12.00;10.00;;;;;;;;5080584;27;46411;-74
2022/05/09 13:52:48;;;;;;;;;10.00;10.00;;;;;;;;5079220;27;46571;-75
2022/05/09 13:55:26;;;;;;;;;9.33;7.00;;;;;;;;5077121;27;45723;-75
2022/05/09 13:57:51;;;;;;;;;9.00;7.67;;;;;;;;5067514;28;45445;-76
2022/05/09 14:00:19;;;;;;;;;9.67;7.33;;;;;;;;5076909;27;45316;-76
2022/05/09 14:02:45;;;;;;;;;6.00;6.00;;;;;;;;5075800;27;45462;-75
2022/05/09 14:05:28;;;;;;;;;10.00;7.00;;;;;;;;5072271;27;45348;-73
2022/05/09 14:07:59;;;;;;;;;8.00;6.00;;;;;;;;5074371;27;45382;-74
2022/05/09 14:10:37;;;;;;;;;7.00;6.00;;;;;;;;5076992;27;46436;-74
2022/05/09 14:13:21;;;;;;;;;6.33;6.33;;;;;;;;5077044;27;45478;-75
2022/05/09 14:15:53;;;;;;;;;5.67;5.00;;;;;;;;5077424;27;45529;-74
2022/05/09 14:18:18;;;;;;;;;13.67;12.67;;;;;;;;5077289;27;45401;-76
2022/05/09 14:20:44;;;;;;;;;6.67;6.33;;;;;;;;5077421;27;46034;-76
2022/05/09 14:23:13;;;;;;;;;10.33;9.00;;;;;;;;5076484;28;45367;-78
2022/05/09 14:31:19;;;;;;;;;5.00;5.00;;;;;;;;5076944;28;45663;-78
2022/05/09 14:33:45;;;;;;;;;6.33;6.00;;;;;;;;5077389;27;45220;-77
2022/05/09 14:36:29;;;;;;;;;6.00;5.00;;;;;;;;5077280;27;45434;-79
2022/05/09 14:38:55;;;;;;;;;8.00;6.67;;;;;;;;5077468;28;45236;-77
2022/05/09 14:41:40;;;;;;;;;10.00;7.00;;;;;;;;5077056;27;45598;-76
2022/05/09 14:44:18;;;;;;;;;6.33;5.00;;;;;;;;5077095;27;45212;-78
2022/05/09 14:46:55;;;;;;;;;7.00;7.00;;;;;;;;5077413;27;45390;-76